createdAt,value
2017-07-18T00:01:52.963Z,18.50
2017-07-18T00:04:21.056Z,18.40
2017-07-18T00:06:49.146Z,18.00
2017-07-18T00:09:17.241Z,17.80
2017-07-18T00:11:45.438Z,18.00
2017-07-18T00:14:13.529Z,18.00
2017-07-18T00:16:41.600Z,18.20
2017-07-18T00:19:09.679Z,18.30
2017-07-18T00:21:37.755Z,18.30
2017-07-18T00:24:05.845Z,18.40
2017-07-18T00:26:33.946Z,18.10
2017-07-18T00:29:02.038Z,17.90
2017-07-18T00:31:30.131Z,18.00
2017-07-18T00:33:58.236Z,18.10
2017-07-18T00:36:26.315Z,18.10
2017-07-18T00:38:54.403Z,18.10
2017-07-18T00:41:22.491Z,18.00
2017-07-18T00:43:50.575Z,18.00
2017-07-18T00:46:18.675Z,17.90
2017-07-18T00:48:46.768Z,18.00
2017-07-18T00:51:14.865Z,18.00
2017-07-18T00:53:42.958Z,17.70
2017-07-18T00:56:11.043Z,17.70
2017-07-18T00:58:39.129Z,17.50
2017-07-18T01:01:07.227Z,17.30
2017-07-18T01:03:35.315Z,17.60
2017-07-18T01:06:03.412Z,17.70
2017-07-18T01:08:31.497Z,17.90
2017-07-18T01:10:59.600Z,17.90
2017-07-18T01:13:27.767Z,17.80
2017-07-18T01:15:55.848Z,17.90
2017-07-18T01:18:23.946Z,17.80
2017-07-18T01:20:52.015Z,17.80
2017-07-18T01:23:20.126Z,17.80
2017-07-18T01:25:48.223Z,17.80
2017-07-18T01:28:16.319Z,17.50
2017-07-18T01:30:44.387Z,17.60
2017-07-18T01:33:12.483Z,17.60
2017-07-18T01:35:40.587Z,17.70
2017-07-18T01:38:08.671Z,17.30
2017-07-18T01:40:36.756Z,17.10
2017-07-18T01:43:04.836Z,17.30
2017-07-18T01:45:32.941Z,17.40
2017-07-18T01:48:01.027Z,17.40
2017-07-18T01:50:29.139Z,17.20
2017-07-18T01:52:57.222Z,16.70
2017-07-18T01:55:25.535Z,16.90
2017-07-18T01:57:53.618Z,17.10
2017-07-18T02:00:21.724Z,17.20
2017-07-18T02:02:49.811Z,17.00
2017-07-18T02:05:17.901Z,16.80
2017-07-18T02:07:46.001Z,16.80
2017-07-18T02:10:14.093Z,16.70
2017-07-18T02:12:42.183Z,16.90
2017-07-18T02:15:10.259Z,17.00
2017-07-18T02:17:38.356Z,17.10
2017-07-18T02:20:06.444Z,17.10
2017-07-18T02:22:34.538Z,17.20
2017-07-18T02:25:02.616Z,17.30
2017-07-18T02:27:30.706Z,17.30
2017-07-18T02:29:58.796Z,17.40
2017-07-18T02:32:26.880Z,17.40
2017-07-18T02:34:55.296Z,17.50
2017-07-18T02:37:23.375Z,17.40
2017-07-18T02:39:51.478Z,17.60
2017-07-18T02:42:19.557Z,17.60
2017-07-18T02:44:47.655Z,17.40
2017-07-18T02:47:15.953Z,17.30
2017-07-18T02:49:44.042Z,17.10
2017-07-18T02:52:12.124Z,16.80
2017-07-18T02:54:40.281Z,16.80
2017-07-18T02:57:08.372Z,16.70
2017-07-18T02:59:36.456Z,16.60
2017-07-18T03:02:04.547Z,16.20
2017-07-18T03:04:32.638Z,15.90
2017-07-18T03:07:00.739Z,16.10
2017-07-18T03:09:28.823Z,16.10
2017-07-18T03:11:56.919Z,16.20
2017-07-18T03:14:25.020Z,16.30
2017-07-18T03:16:53.108Z,16.50
2017-07-18T03:19:21.214Z,16.70
2017-07-18T03:21:49.484Z,16.80
2017-07-18T03:24:29.445Z,16.80
2017-07-18T03:26:57.544Z,16.80
2017-07-18T03:29:25.643Z,16.70
2017-07-18T03:31:53.719Z,16.60
2017-07-18T03:34:21.868Z,16.60
2017-07-18T03:36:49.959Z,16.70
2017-07-18T03:39:18.059Z,16.60
2017-07-18T03:41:46.139Z,15.90
2017-07-18T03:44:14.227Z,16.10
2017-07-18T03:46:42.476Z,16.20
2017-07-18T03:49:10.568Z,16.40
2017-07-18T03:51:38.659Z,16.50
2017-07-18T03:54:06.753Z,16.40
2017-07-18T03:56:34.835Z,16.60
2017-07-18T03:59:02.911Z,16.70
2017-07-18T04:01:30.999Z,16.80
2017-07-18T04:03:59.079Z,16.90
2017-07-18T04:06:27.163Z,17.00
2017-07-18T04:08:55.243Z,17.00
2017-07-18T04:11:23.321Z,17.00
2017-07-18T04:13:51.424Z,17.00
2017-07-18T04:16:19.500Z,16.90
2017-07-18T04:18:47.588Z,17.00
2017-07-18T04:21:15.679Z,17.10
2017-07-18T04:23:43.868Z,17.00
2017-07-18T04:26:11.989Z,16.90
2017-07-18T04:28:40.082Z,17.00
2017-07-18T04:31:08.157Z,17.10
2017-07-18T04:33:36.244Z,17.30
2017-07-18T04:36:04.317Z,17.10
2017-07-18T04:38:32.403Z,16.80
2017-07-18T04:41:00.483Z,16.60
2017-07-18T04:43:28.568Z,16.70
2017-07-18T04:45:56.649Z,16.90
2017-07-18T04:48:24.739Z,17.20
2017-07-18T04:50:52.821Z,17.20
2017-07-18T04:53:20.940Z,17.50
2017-07-18T04:55:49.032Z,17.60
2017-07-18T04:58:17.112Z,17.80
2017-07-18T05:00:45.201Z,18.00
2017-07-18T05:03:13.461Z,18.00
2017-07-18T05:05:41.555Z,18.30
2017-07-18T05:08:09.636Z,18.50
2017-07-18T05:10:37.722Z,18.70
2017-07-18T05:13:05.791Z,18.90
2017-07-18T05:15:33.948Z,19.10
2017-07-18T05:18:02.053Z,19.10
2017-07-18T05:20:30.134Z,19.20
2017-07-18T05:22:58.235Z,19.30
2017-07-18T05:25:26.295Z,19.50
2017-07-18T05:27:54.395Z,19.80
2017-07-18T05:30:22.476Z,19.80
2017-07-18T05:32:50.576Z,19.90
2017-07-18T05:35:18.661Z,20.00
2017-07-18T05:37:46.741Z,20.10
2017-07-18T05:40:14.826Z,20.20
2017-07-18T05:42:42.901Z,20.50
2017-07-18T05:45:11.059Z,20.70
2017-07-18T05:47:39.144Z,20.90
2017-07-18T05:50:07.227Z,21.10
2017-07-18T05:52:35.316Z,21.20
2017-07-18T05:55:03.410Z,21.30
2017-07-18T05:57:31.486Z,21.40
2017-07-18T05:59:59.578Z,21.50
2017-07-18T06:02:27.664Z,21.70
2017-07-18T06:04:56.251Z,21.80
2017-07-18T06:07:24.359Z,21.90
2017-07-18T06:09:52.623Z,21.80
2017-07-18T06:12:20.722Z,22.00
2017-07-18T06:14:48.802Z,22.00
2017-07-18T06:17:16.881Z,22.00
2017-07-18T06:19:44.954Z,22.20
2017-07-18T06:22:13.043Z,22.40
2017-07-18T06:24:41.155Z,22.70
2017-07-18T06:27:09.251Z,22.90
2017-07-18T06:29:37.735Z,23.00
2017-07-18T06:32:05.816Z,23.20
2017-07-18T06:34:33.903Z,23.20
2017-07-18T06:37:01.984Z,23.30
2017-07-18T06:39:30.067Z,23.50
2017-07-18T06:41:58.142Z,23.60
2017-07-18T06:44:26.235Z,23.80
2017-07-18T06:46:54.305Z,24.00
2017-07-18T06:49:22.378Z,24.10
2017-07-18T06:51:50.446Z,24.20
2017-07-18T06:54:18.525Z,24.40
2017-07-18T06:56:46.594Z,24.50
2017-07-18T06:59:14.677Z,24.40
2017-07-18T07:01:42.744Z,24.70
2017-07-18T07:04:10.812Z,24.80
2017-07-18T07:06:38.897Z,24.90
2017-07-18T07:09:06.972Z,25.00
2017-07-18T07:11:35.059Z,24.90
2017-07-18T07:14:03.138Z,25.00
2017-07-18T07:16:31.232Z,25.30
2017-07-18T07:18:59.306Z,25.50
2017-07-18T07:21:27.397Z,25.10
2017-07-18T07:23:55.475Z,25.30
2017-07-18T07:26:23.556Z,24.80
2017-07-18T07:28:51.625Z,24.50
2017-07-18T07:31:19.694Z,25.20
2017-07-18T07:33:47.777Z,25.60
2017-07-18T07:36:16.094Z,25.50
2017-07-18T07:38:44.167Z,25.70
2017-07-18T07:41:12.241Z,25.90
2017-07-18T07:43:40.322Z,26.00
2017-07-18T07:46:08.395Z,25.90
2017-07-18T07:48:36.479Z,26.20
2017-07-18T07:51:04.570Z,25.90
2017-07-18T07:53:33.475Z,26.00
2017-07-18T07:56:01.555Z,26.40
2017-07-18T07:58:29.636Z,26.80
2017-07-18T08:00:57.712Z,26.90
2017-07-18T08:03:25.788Z,26.50
2017-07-18T08:05:54.073Z,26.20
2017-07-18T08:08:22.156Z,27.00
2017-07-18T08:10:50.227Z,26.70
2017-07-18T08:13:18.297Z,26.30
2017-07-18T08:15:46.383Z,27.00
2017-07-18T08:18:14.456Z,27.60
2017-07-18T08:20:42.547Z,27.50
2017-07-18T08:23:10.638Z,27.50
2017-07-18T08:25:38.728Z,27.90
2017-07-18T08:28:06.795Z,28.10
2017-07-18T08:30:34.899Z,28.80
2017-07-18T08:33:02.975Z,27.40
2017-07-18T08:35:31.068Z,27.00
2017-07-18T08:37:59.147Z,28.00
2017-07-18T08:40:27.232Z,28.50
2017-07-18T08:42:55.324Z,29.10
2017-07-18T08:45:24.173Z,28.80
2017-07-18T08:47:52.256Z,28.20
2017-07-18T08:50:20.340Z,28.50
2017-07-18T08:52:48.431Z,29.20
2017-07-18T08:55:16.495Z,29.70
2017-07-18T08:57:44.571Z,29.70
2017-07-18T09:00:12.642Z,30.10
2017-07-18T09:02:40.723Z,30.50
2017-07-18T09:05:08.795Z,29.30
2017-07-18T09:07:36.879Z,28.50
2017-07-18T09:10:04.944Z,28.70
2017-07-18T09:12:33.026Z,28.50
2017-07-18T09:15:01.108Z,28.70
2017-07-18T09:17:29.176Z,28.10
2017-07-18T09:19:57.263Z,28.20
2017-07-18T09:22:25.327Z,28.70
2017-07-18T09:24:53.410Z,28.30
2017-07-18T09:27:21.479Z,28.40
2017-07-18T09:29:49.580Z,29.80
2017-07-18T09:32:17.650Z,29.90
2017-07-18T09:34:45.728Z,30.70
2017-07-18T09:37:13.803Z,30.70
2017-07-18T09:39:41.882Z,30.50
2017-07-18T09:42:09.959Z,30.90
2017-07-18T09:44:38.035Z,31.30
2017-07-18T09:47:06.144Z,31.50
2017-07-18T09:49:34.230Z,31.50
2017-07-18T09:52:02.294Z,31.40
2017-07-18T09:54:30.371Z,30.20
2017-07-18T09:56:58.456Z,30.40
2017-07-18T09:59:26.537Z,30.60
2017-07-18T10:01:54.607Z,30.80
2017-07-18T10:04:22.695Z,31.70
2017-07-18T10:06:50.772Z,31.80
2017-07-18T10:09:18.854Z,31.30
2017-07-18T10:11:46.930Z,29.80
2017-07-18T10:14:15.011Z,29.70
2017-07-18T10:16:43.097Z,31.20
2017-07-18T10:19:11.183Z,32.20
2017-07-18T10:21:39.260Z,33.20
2017-07-18T10:24:07.333Z,34.00
2017-07-18T10:26:35.411Z,34.30
2017-07-18T10:29:03.482Z,34.60
2017-07-18T10:31:31.556Z,34.70
2017-07-18T10:33:59.646Z,35.10
2017-07-18T10:36:27.722Z,35.30
2017-07-18T10:38:55.800Z,35.50
2017-07-18T10:41:23.879Z,35.40
2017-07-18T10:43:51.951Z,35.50
2017-07-18T10:46:20.035Z,34.40
2017-07-18T10:48:48.103Z,33.60
2017-07-18T10:51:16.192Z,32.70
2017-07-18T10:53:44.265Z,32.50
2017-07-18T10:56:12.358Z,33.10
2017-07-18T10:58:40.435Z,33.30
2017-07-18T11:01:08.510Z,32.90
2017-07-18T11:03:36.591Z,32.10
2017-07-18T11:06:04.670Z,31.70
2017-07-18T11:08:32.756Z,31.60
2017-07-18T11:11:00.826Z,32.70
2017-07-18T11:13:28.922Z,33.70
2017-07-18T11:15:57.017Z,34.80
2017-07-18T11:18:25.100Z,34.50
2017-07-18T11:20:53.194Z,33.20
2017-07-18T11:23:21.285Z,32.70
2017-07-18T11:25:49.360Z,32.60
2017-07-18T11:28:17.435Z,32.20
2017-07-18T11:30:45.523Z,31.80
2017-07-18T11:33:13.612Z,31.30
2017-07-18T11:35:41.713Z,31.20
2017-07-18T11:38:09.789Z,31.70
2017-07-18T11:40:38.208Z,32.50
2017-07-18T11:43:06.286Z,32.90
2017-07-18T11:45:34.363Z,32.60
2017-07-18T11:48:02.446Z,32.20
2017-07-18T11:50:30.534Z,31.70
2017-07-18T11:52:58.614Z,32.30
2017-07-18T11:55:26.708Z,32.90
2017-07-18T11:57:54.792Z,33.40
2017-07-18T12:00:22.872Z,34.00
2017-07-18T12:02:50.950Z,34.20
2017-07-18T12:05:19.023Z,34.40
2017-07-18T12:07:47.113Z,34.90
2017-07-18T12:10:15.189Z,34.90
2017-07-18T12:12:43.269Z,35.00
2017-07-18T12:15:11.338Z,35.40
2017-07-18T12:17:39.446Z,35.60
2017-07-18T12:20:07.519Z,35.80
2017-07-18T12:22:35.595Z,35.50
2017-07-18T12:25:03.666Z,34.90
2017-07-18T12:27:31.759Z,34.50
2017-07-18T12:29:59.827Z,33.70
2017-07-18T12:32:27.908Z,33.00
2017-07-18T12:34:55.995Z,32.60
2017-07-18T12:37:24.086Z,31.80
2017-07-18T12:39:52.165Z,31.70
2017-07-18T12:42:20.250Z,30.90
2017-07-18T12:44:48.332Z,30.60
2017-07-18T12:47:16.407Z,30.80
2017-07-18T12:49:44.499Z,31.10
2017-07-18T12:52:12.575Z,31.20
2017-07-18T12:54:40.663Z,31.60
2017-07-18T12:57:08.747Z,32.10
2017-07-18T12:59:36.835Z,31.90
2017-07-18T13:02:04.911Z,32.10
2017-07-18T13:04:32.978Z,32.30
2017-07-18T13:07:01.063Z,31.80
2017-07-18T13:09:29.136Z,31.60
2017-07-18T13:11:57.211Z,31.40
2017-07-18T13:14:25.291Z,31.60
2017-07-18T13:16:53.390Z,32.30
2017-07-18T13:19:21.481Z,32.90
2017-07-18T13:21:49.556Z,33.80
2017-07-18T13:24:17.627Z,34.00
2017-07-18T13:26:45.718Z,34.20
2017-07-18T13:29:13.788Z,34.40
2017-07-18T13:31:41.856Z,34.20
2017-07-18T13:34:09.931Z,32.90
2017-07-18T13:36:38.005Z,32.00
2017-07-18T13:39:06.083Z,32.70
2017-07-18T13:41:34.151Z,33.20
2017-07-18T13:44:02.238Z,33.30
2017-07-18T13:46:30.318Z,32.70
2017-07-18T13:48:58.411Z,32.70
2017-07-18T13:51:26.488Z,32.10
2017-07-18T13:53:54.565Z,31.80
2017-07-18T13:56:22.651Z,32.10
2017-07-18T13:58:50.719Z,32.10
2017-07-18T14:01:18.799Z,32.00
2017-07-18T14:03:46.862Z,32.10
2017-07-18T14:06:14.955Z,32.20
2017-07-18T14:08:43.047Z,32.20
2017-07-18T14:11:11.134Z,31.80
2017-07-18T14:13:39.204Z,31.20
2017-07-18T14:16:07.282Z,30.40
2017-07-18T14:18:35.362Z,30.50
2017-07-18T14:21:03.434Z,30.90
2017-07-18T14:23:31.508Z,31.20
2017-07-18T14:25:59.605Z,31.40
2017-07-18T14:28:27.680Z,31.00
2017-07-18T14:30:55.751Z,30.50
2017-07-18T14:33:23.823Z,30.70
2017-07-18T14:35:51.898Z,30.50
2017-07-18T14:38:19.970Z,30.30
2017-07-18T14:40:48.035Z,30.30
2017-07-18T14:43:16.114Z,30.50
2017-07-18T14:45:44.408Z,30.70
2017-07-18T14:48:12.471Z,30.50
2017-07-18T14:50:40.548Z,30.40
2017-07-18T14:53:08.636Z,30.30
2017-07-18T14:55:36.733Z,30.20
2017-07-18T14:58:04.817Z,30.00
2017-07-18T15:00:32.904Z,29.60
2017-07-18T15:03:00.975Z,29.70
2017-07-18T15:05:29.063Z,29.50
2017-07-18T15:07:57.141Z,29.40
2017-07-18T15:10:25.231Z,29.40
2017-07-18T15:12:53.314Z,29.40
2017-07-18T15:15:21.392Z,29.60
2017-07-18T15:17:49.479Z,29.80
2017-07-18T15:20:17.564Z,29.90
2017-07-18T15:22:45.635Z,29.90
2017-07-18T15:25:13.723Z,29.80
2017-07-18T15:27:41.819Z,30.00
2017-07-18T15:30:09.901Z,30.00
2017-07-18T15:32:37.993Z,29.90
2017-07-18T15:35:06.080Z,29.60
2017-07-18T15:37:34.159Z,29.80
2017-07-18T15:40:02.235Z,29.90
2017-07-18T15:42:30.319Z,29.70
2017-07-18T15:44:58.391Z,29.60
2017-07-18T15:47:26.479Z,29.50
2017-07-18T15:49:54.574Z,29.60
2017-07-18T15:52:22.643Z,29.60
2017-07-18T15:54:50.724Z,29.50
2017-07-18T15:57:18.795Z,29.40
2017-07-18T15:59:46.889Z,29.30
2017-07-18T16:02:14.966Z,29.30
2017-07-18T16:04:43.072Z,29.40
2017-07-18T16:07:11.357Z,29.50
2017-07-18T16:09:39.450Z,29.30
2017-07-18T16:12:07.756Z,29.30
2017-07-18T16:14:35.835Z,29.20
2017-07-18T16:17:03.922Z,29.10
2017-07-18T16:19:31.996Z,29.10
2017-07-18T16:22:00.072Z,29.20
2017-07-18T16:24:28.143Z,29.30
2017-07-18T16:26:56.228Z,29.20
2017-07-18T16:29:24.311Z,29.00
2017-07-18T16:31:52.400Z,28.80
2017-07-18T16:34:20.526Z,28.80
2017-07-18T16:36:48.617Z,28.80
2017-07-18T16:39:16.677Z,28.80
2017-07-18T16:41:44.748Z,28.70
2017-07-18T16:44:12.818Z,28.80
2017-07-18T16:46:40.911Z,28.80
2017-07-18T16:49:09.003Z,28.70
2017-07-18T16:51:37.080Z,28.60
2017-07-18T16:54:05.182Z,28.70
2017-07-18T16:56:33.276Z,28.60
2017-07-18T16:59:01.364Z,28.70
2017-07-18T17:01:29.447Z,28.60
2017-07-18T17:03:57.525Z,28.50
2017-07-18T17:06:25.616Z,28.50
2017-07-18T17:08:53.692Z,28.40
2017-07-18T17:11:21.777Z,28.30
2017-07-18T17:13:49.846Z,28.20
2017-07-18T17:16:17.952Z,28.10
2017-07-18T17:18:46.036Z,28.10
2017-07-18T17:21:14.115Z,28.30
2017-07-18T17:23:42.192Z,28.20
2017-07-18T17:26:10.268Z,28.20
2017-07-18T17:28:38.346Z,28.20
2017-07-18T17:31:06.439Z,28.20
2017-07-18T17:33:34.523Z,28.10
2017-07-18T17:36:02.603Z,28.00
2017-07-18T17:38:30.700Z,28.00
2017-07-18T17:40:58.771Z,27.90
2017-07-18T17:43:26.866Z,27.80
2017-07-18T17:45:54.938Z,27.80
2017-07-18T17:48:23.027Z,27.70
2017-07-18T17:50:51.110Z,27.70
2017-07-18T17:53:19.208Z,27.50
2017-07-18T17:55:47.299Z,27.60
2017-07-18T17:58:15.380Z,27.70
2017-07-18T18:00:43.468Z,27.70
2017-07-18T18:03:11.544Z,27.50
2017-07-18T18:05:39.632Z,27.50
2017-07-18T18:08:07.713Z,27.50
2017-07-18T18:10:35.801Z,27.50
2017-07-18T18:13:03.874Z,27.50
2017-07-18T18:15:31.955Z,27.40
2017-07-18T18:18:00.043Z,27.40
2017-07-18T18:20:28.106Z,27.40
2017-07-18T18:22:56.208Z,27.30
2017-07-18T18:25:24.281Z,27.20
2017-07-18T18:27:52.359Z,27.20
2017-07-18T18:30:20.443Z,27.10
2017-07-18T18:32:48.532Z,27.20
2017-07-18T18:35:16.604Z,27.00
2017-07-18T18:37:44.702Z,27.00
2017-07-18T18:40:12.773Z,26.90
2017-07-18T18:42:40.843Z,26.90
2017-07-18T18:45:08.978Z,26.70
2017-07-18T18:47:37.131Z,26.70
2017-07-18T18:50:05.321Z,26.60
2017-07-18T18:52:33.397Z,26.60
2017-07-18T18:55:01.488Z,26.60
2017-07-18T18:57:29.554Z,26.50
2017-07-18T18:59:57.644Z,26.40
2017-07-18T19:02:25.714Z,26.30
2017-07-18T19:04:53.810Z,26.30
2017-07-18T19:07:21.880Z,26.20
2017-07-18T19:09:49.958Z,26.20
2017-07-18T19:12:18.040Z,26.10
2017-07-18T19:14:46.153Z,26.00
2017-07-18T19:17:14.256Z,26.00
2017-07-18T19:19:42.335Z,25.90
2017-07-18T19:22:10.407Z,25.80
2017-07-18T19:24:38.480Z,25.70
2017-07-18T19:27:06.576Z,25.60
2017-07-18T19:29:34.660Z,25.60
2017-07-18T19:32:02.749Z,25.60
2017-07-18T19:34:30.828Z,25.60
2017-07-18T19:36:58.930Z,25.50
2017-07-18T19:39:27.014Z,25.50
2017-07-18T19:41:55.091Z,25.30
2017-07-18T19:44:23.225Z,25.30
2017-07-18T19:46:51.347Z,25.30
2017-07-18T19:49:19.482Z,25.30
2017-07-18T19:51:47.678Z,25.20
2017-07-18T19:54:15.954Z,25.10
2017-07-18T19:56:44.033Z,24.90
2017-07-18T19:59:12.381Z,24.90
2017-07-18T20:01:40.446Z,25.00
2017-07-18T20:04:08.638Z,25.00
2017-07-18T20:06:36.723Z,24.90
2017-07-18T20:09:04.858Z,24.90
2017-07-18T20:11:32.956Z,24.90
2017-07-18T20:14:01.066Z,24.80
2017-07-18T20:16:29.143Z,24.80
2017-07-18T20:18:57.271Z,24.60
2017-07-18T20:21:25.352Z,24.60
2017-07-18T20:23:53.483Z,24.50
2017-07-18T20:26:21.690Z,24.50
2017-07-18T20:28:49.812Z,24.50
2017-07-18T20:31:17.883Z,24.50
2017-07-18T20:33:45.966Z,24.50
2017-07-18T20:36:14.039Z,24.40
2017-07-18T20:38:42.119Z,24.40
2017-07-18T20:41:10.194Z,24.30
2017-07-18T20:43:38.325Z,24.10
2017-07-18T20:46:06.385Z,24.20
2017-07-18T20:48:34.469Z,24.20
2017-07-18T20:51:02.531Z,24.10
2017-07-18T20:53:30.635Z,24.00
2017-07-18T20:55:58.702Z,24.00
2017-07-18T20:58:26.773Z,24.00
2017-07-18T21:00:54.851Z,24.00
2017-07-18T21:03:22.937Z,24.10
2017-07-18T21:05:51.027Z,24.00
2017-07-18T21:08:19.101Z,24.00
2017-07-18T21:10:47.183Z,23.90
2017-07-18T21:13:15.274Z,23.90
2017-07-18T21:15:43.372Z,23.80
2017-07-18T21:18:11.448Z,23.80
2017-07-18T21:20:39.540Z,23.80
2017-07-18T21:23:07.628Z,23.80
2017-07-18T21:25:35.707Z,23.70
2017-07-18T21:28:03.783Z,23.70
2017-07-18T21:30:31.858Z,23.60
2017-07-18T21:32:59.934Z,23.70
2017-07-18T21:35:28.033Z,23.70
2017-07-18T21:37:56.107Z,23.60
2017-07-18T21:40:24.186Z,23.60
2017-07-18T21:42:52.266Z,23.60
2017-07-18T21:45:20.339Z,23.50
2017-07-18T21:47:48.432Z,23.30
2017-07-18T21:50:16.509Z,23.30
2017-07-18T21:52:44.598Z,23.30
2017-07-18T21:55:12.669Z,23.30
2017-07-18T21:57:40.754Z,23.20
2017-07-18T22:00:08.840Z,23.20
2017-07-18T22:02:36.911Z,23.20
2017-07-18T22:05:05.003Z,23.20
2017-07-18T22:07:33.083Z,23.10
2017-07-18T22:10:01.171Z,23.10
2017-07-18T22:12:29.247Z,23.10
2017-07-18T22:14:57.326Z,23.10
2017-07-18T22:17:25.400Z,23.10
2017-07-18T22:19:53.463Z,23.10
2017-07-18T22:22:21.543Z,23.10
2017-07-18T22:24:49.607Z,23.10
2017-07-18T22:27:17.810Z,23.10
2017-07-18T22:29:45.999Z,23.10
2017-07-18T22:32:14.084Z,23.00
2017-07-18T22:34:42.162Z,22.90
2017-07-18T22:37:10.249Z,22.80
2017-07-18T22:39:38.323Z,22.80
2017-07-18T22:42:06.423Z,22.70
2017-07-18T22:44:34.495Z,22.30
2017-07-18T22:47:02.570Z,22.40
2017-07-18T22:49:30.666Z,22.10
2017-07-18T22:51:58.740Z,22.00
2017-07-18T22:54:26.818Z,22.00
2017-07-18T22:56:54.914Z,22.00
2017-07-18T22:59:22.988Z,21.90
2017-07-18T23:01:51.069Z,22.00
2017-07-18T23:04:19.155Z,22.00
2017-07-18T23:06:47.230Z,21.90
2017-07-18T23:09:15.311Z,22.00
2017-07-18T23:11:43.391Z,21.90
2017-07-18T23:14:11.479Z,21.90
2017-07-18T23:16:39.559Z,21.80
2017-07-18T23:19:07.636Z,21.90
2017-07-18T23:21:35.714Z,22.00
2017-07-18T23:24:03.801Z,21.90
2017-07-18T23:26:32.019Z,21.90
2017-07-18T23:29:00.105Z,21.70
2017-07-18T23:31:28.181Z,21.50
2017-07-18T23:33:56.251Z,21.60
2017-07-18T23:36:24.328Z,21.60
2017-07-18T23:38:52.405Z,21.60
2017-07-18T23:41:20.474Z,21.60
2017-07-18T23:43:48.571Z,21.70
2017-07-18T23:46:16.650Z,21.80
2017-07-18T23:48:44.731Z,21.90
2017-07-18T23:51:12.834Z,21.90
2017-07-18T23:53:40.959Z,21.80
2017-07-18T23:56:09.039Z,21.70
2017-07-18T23:58:37.120Z,21.70
